Sheng Jia 1 — XUGG7 — position and weather

sailwx.info

Track history (hours):
 
Tides and Currents Weather Stations Pressure Air Temp Water Temp Dewpoint Dewpoint Depression Visibility Wind Speed Wind Dir Waves Ship Positions

Sheng Jia 1

Last reported at 2015-Aug-03 02:34 UTC. Time now 2015-Aug-03 02:38 UTC.
Position N 31°06' E 121°59'.

Length 73 m; draft 3.4 m.

Type: Cargo ship. MMSI: 515744000.

Date/timePositionNaut miles runAvg speedWind from/ knotsBaromVisibWave heightAir tempDewpointWater temp
2015-Aug-03 02:34N 31°06' E 121°59'1311.9
2015-Aug-03 01:29N 31°03' E 122°14'7 0.7
2015-Aug-02 15:26N 30°59' E 122°21'0 0.0
2015-Aug-02 14:22N 30°59' E 122°21'0 0.0
2015-Aug-02 12:32N 30°59' E 122°21'0 0.1
2015-Aug-02 11:32N 30°59' E 122°21'0 0.1
2015-Aug-02 10:32N 30°59' E 122°21'0 0.0
2015-Aug-02 09:26N 30°59' E 122°21'0 0.0
2015-Aug-02 08:32N 30°59' E 122°21'0 0.0
2015-Aug-02 07:29N 30°59' E 122°21'0 0.0
2015-Aug-02 06:32N 30°59' E 122°21'0 0.0
2015-Aug-01 21:14N 30°59' E 122°21'3 2.0
2015-Aug-01 19:29N 31°01' E 122°24'7 6.5
2015-Aug-01 18:29N 31°00' E 122°32'1110.2
2015-Aug-01 17:25N 30°49' E 122°33'3410.8
2015-Aug-01 14:18N 30°16' E 122°37'811.0
2015-Aug-01 13:33N 30°07' E 122°36'  
2015-Jul-29 20:12N 29°48' E 122°53'65 7.5
2015-Jul-29 11:31N 30°48' E 123°24'3310.1
2015-Jul-29 08:15N 31°04' E 123°57'339 8.3
2015-Jul-27 15:31N 33°41' E 129°54'17 8.4
2015-Jul-27 13:26N 33°50' E 130°12'229 8.2
2015-Jul-26 09:33N 34°06' E 134°46'267 7.2
2015-Jul-24 20:28N 34°57' E 140°05'22 9.6
2015-Jul-24 18:10N 35°11' E 140°27'6 9.1
2015-Jul-24 17:31N 35°15' E 140°31'11 9.4
2015-Jul-24 16:19N 35°25' E 140°39'7 9.3
2015-Jul-24 15:33N 35°30' E 140°45'9 8.6
2015-Jul-24 14:33N 35°37' E 140°51'9 9.0
2015-Jul-24 13:33N 35°45' E 140°55'14 9.6
2015-Jul-24 12:06N 35°59' E 140°51'5 9.7
2015-Jul-24 11:33N 36°04' E 140°50'10 9.7
2015-Jul-24 10:33N 36°14' E 140°47'  
Track history (hours):
 
Tides and Currents Weather Stations Pressure Air Temp Water Temp Dewpoint Dewpoint Depression Visibility Wind Speed Wind Dir Waves Ship Positions

Sheng Jia 1

Last reported at 2015-Aug-03 02:34 UTC. Time now 2015-Aug-03 02:38 UTC.
Position N 31°06' E 121°59'.

Length 73 m; draft 3.4 m.

Type: Cargo ship. MMSI: 515744000.

Date/timePositionNaut miles runAvg speedWind from/ knotsBaromVisibWave heightAir tempDewpointWater temp
2015-Aug-03 02:34N 31°06' E 121°59'1311.9
2015-Aug-03 01:29N 31°03' E 122°14'7 0.7
2015-Aug-02 15:26N 30°59' E 122°21'0 0.0
2015-Aug-02 14:22N 30°59' E 122°21'0 0.0
2015-Aug-02 12:32N 30°59' E 122°21'0 0.1
2015-Aug-02 11:32N 30°59' E 122°21'0 0.1
2015-Aug-02 10:32N 30°59' E 122°21'0 0.0
2015-Aug-02 09:26N 30°59' E 122°21'0 0.0
2015-Aug-02 08:32N 30°59' E 122°21'0 0.0
2015-Aug-02 07:29N 30°59' E 122°21'0 0.0
2015-Aug-02 06:32N 30°59' E 122°21'0 0.0
2015-Aug-01 21:14N 30°59' E 122°21'3 2.0
2015-Aug-01 19:29N 31°01' E 122°24'7 6.5
2015-Aug-01 18:29N 31°00' E 122°32'1110.2
2015-Aug-01 17:25N 30°49' E 122°33'3410.8
2015-Aug-01 14:18N 30°16' E 122°37'811.0
2015-Aug-01 13:33N 30°07' E 122°36'  
2015-Jul-29 20:12N 29°48' E 122°53'65 7.5
2015-Jul-29 11:31N 30°48' E 123°24'3310.1
2015-Jul-29 08:15N 31°04' E 123°57'339 8.3
2015-Jul-27 15:31N 33°41' E 129°54'17 8.4
2015-Jul-27 13:26N 33°50' E 130°12'229 8.2
2015-Jul-26 09:33N 34°06' E 134°46'267 7.2
2015-Jul-24 20:28N 34°57' E 140°05'22 9.6
2015-Jul-24 18:10N 35°11' E 140°27'6 9.1
2015-Jul-24 17:31N 35°15' E 140°31'11 9.4
2015-Jul-24 16:19N 35°25' E 140°39'7 9.3
2015-Jul-24 15:33N 35°30' E 140°45'9 8.6
2015-Jul-24 14:33N 35°37' E 140°51'9 9.0
2015-Jul-24 13:33N 35°45' E 140°55'14 9.6
2015-Jul-24 12:06N 35°59' E 140°51'5 9.7
2015-Jul-24 11:33N 36°04' E 140°50'10 9.7
2015-Jul-24 10:33N 36°14' E 140°47'  

Dump ship's entire track history